createdAt,value
2023-09-29T00:00:16.958Z,80.03
2023-09-29T00:02:45.611Z,84.13
2023-09-29T00:05:16.711Z,84.30
2023-09-29T00:07:45.163Z,85.60
2023-09-29T00:10:14.727Z,88.75
2023-09-29T00:12:44.206Z,89.88
2023-09-29T00:15:12.678Z,91.18
2023-09-29T00:17:42.047Z,90.60
2023-09-29T00:20:19.122Z,90.55
2023-09-29T00:22:47.232Z,90.22
2023-09-29T00:25:15.429Z,90.82
2023-09-29T00:27:43.302Z,88.93
2023-09-29T00:30:13.172Z,86.82
2023-09-29T00:32:48.312Z,86.55
2023-09-29T00:35:23.043Z,87.03
2023-09-29T00:37:51.105Z,87.68
2023-09-29T00:40:19.085Z,86.90
2023-09-29T00:42:48.177Z,85.70
2023-09-29T00:45:20.884Z,86.85
2023-09-29T00:47:51.836Z,87.65
2023-09-29T00:50:20.768Z,88.30
2023-09-29T00:52:49.189Z,88.20
2023-09-29T00:55:18.792Z,86.25
2023-09-29T00:57:49.369Z,88.32
2023-09-29T01:00:22.664Z,89.40
2023-09-29T01:02:53.181Z,89.65
2023-09-29T01:05:22.125Z,90.70
2023-09-29T01:07:50.067Z,92.07
2023-09-29T01:10:19.049Z,92.00
2023-09-29T01:12:46.986Z,91.97
2023-09-29T01:15:15.974Z,93.72
2023-09-29T01:17:44.807Z,92.90
2023-09-29T01:20:25.983Z,93.18
2023-09-29T01:22:53.998Z,98.60
2023-09-29T01:25:23.346Z,96.55
2023-09-29T01:27:51.721Z,99.40
2023-09-29T01:30:20.246Z,99.57
2023-09-29T01:32:49.024Z,97.97
2023-09-29T01:35:19.299Z,99.15
2023-09-29T01:37:47.914Z,100.43
2023-09-29T01:40:16.479Z,99.38
2023-09-29T01:42:46.452Z,98.47
2023-09-29T01:45:15.374Z,98.85
2023-09-29T01:47:44.481Z,98.03
2023-09-29T01:50:16.400Z,98.30
2023-09-29T01:52:44.670Z,99.30
2023-09-29T01:55:15.763Z,99.13
2023-09-29T01:57:45.056Z,100.20
2023-09-29T02:00:16.500Z,100.03
2023-09-29T02:02:46.082Z,101.33
2023-09-29T02:05:14.453Z,102.40
2023-09-29T02:07:42.377Z,104.77
2023-09-29T02:10:10.656Z,103.87
2023-09-29T02:12:46.683Z,103.13
2023-09-29T02:15:17.143Z,106.30
2023-09-29T02:17:46.038Z,107.63
2023-09-29T02:20:16.555Z,108.17
2023-09-29T02:22:44.535Z,107.93
2023-09-29T02:25:15.802Z,110.60
2023-09-29T02:27:44.078Z,111.83
2023-09-29T02:30:13.921Z,112.27
2023-09-29T02:32:43.716Z,114.07
2023-09-29T02:35:12.267Z,113.10
2023-09-29T02:37:41.173Z,114.97
2023-09-29T02:40:16.257Z,114.30
2023-09-29T02:42:45.647Z,112.53
2023-09-29T02:45:14.817Z,111.23
2023-09-29T02:47:44.664Z,110.80
2023-09-29T02:50:13.467Z,112.73
2023-09-29T02:52:42.370Z,111.23
2023-09-29T02:55:14.374Z,111.13
2023-09-29T02:57:43.778Z,110.87
2023-09-29T03:00:16.619Z,109.53
2023-09-29T03:02:46.207Z,111.77
2023-09-29T03:05:15.792Z,114.00
2023-09-29T03:07:44.205Z,112.80
2023-09-29T03:10:14.543Z,113.57
2023-09-29T03:12:42.528Z,115.47
2023-09-29T03:15:12.776Z,114.50
2023-09-29T03:17:40.756Z,116.27
2023-09-29T03:20:12.556Z,115.40
2023-09-29T03:22:41.224Z,119.33
2023-09-29T03:25:11.192Z,118.63
2023-09-29T03:27:40.384Z,119.87
2023-09-29T03:30:10.829Z,120.90
2023-09-29T03:32:38.901Z,121.00
2023-09-29T03:35:07.326Z,123.63
2023-09-29T03:37:37.261Z,122.97
2023-09-29T03:40:09.865Z,123.70
2023-09-29T03:42:38.512Z,121.77
2023-09-29T03:45:07.769Z,122.73
2023-09-29T03:47:36.073Z,122.33
2023-09-29T03:50:05.739Z,122.10
2023-09-29T03:52:34.397Z,119.90
2023-09-29T03:55:03.596Z,118.83
2023-09-29T03:57:33.238Z,118.07
2023-09-29T04:00:01.309Z,119.40
2023-09-29T04:02:29.448Z,117.57
2023-09-29T04:04:59.783Z,117.97
2023-09-29T04:07:28.075Z,117.23
2023-09-29T04:09:55.957Z,116.20
2023-09-29T04:12:25.259Z,115.43
2023-09-29T04:14:54.407Z,115.17
2023-09-29T04:17:22.545Z,114.00
2023-09-29T04:19:50.491Z,114.13
2023-09-29T04:22:18.650Z,114.83
2023-09-29T04:24:46.583Z,114.47
2023-09-29T04:27:14.901Z,114.37
2023-09-29T04:29:44.315Z,115.90
2023-09-29T04:32:12.198Z,113.67
2023-09-29T04:34:39.994Z,113.97
2023-09-29T04:37:07.936Z,112.43
2023-09-29T04:39:35.830Z,114.77
2023-09-29T04:42:05.172Z,114.67
2023-09-29T04:44:33.045Z,115.73
2023-09-29T04:47:02.674Z,116.93
2023-09-29T04:49:30.624Z,116.47
2023-09-29T04:51:58.532Z,117.37
2023-09-29T04:54:26.366Z,117.57
2023-09-29T04:56:54.318Z,117.93
2023-09-29T04:59:22.246Z,119.03
2023-09-29T05:01:50.247Z,115.77
2023-09-29T05:04:19.800Z,117.37
2023-09-29T05:06:47.857Z,113.60
2023-09-29T05:09:17.036Z,114.43
2023-09-29T05:11:45.119Z,113.43
2023-09-29T05:14:12.923Z,113.27
2023-09-29T05:16:41.003Z,114.23
2023-09-29T05:19:09.111Z,116.30
2023-09-29T05:21:38.533Z,117.27
2023-09-29T05:24:06.915Z,116.97
2023-09-29T05:26:34.930Z,116.47
2023-09-29T05:29:02.911Z,115.00
2023-09-29T05:31:30.765Z,114.33
2023-09-29T05:33:59.052Z,112.87
2023-09-29T05:36:28.483Z,113.93
2023-09-29T05:38:58.049Z,112.83
2023-09-29T05:41:26.291Z,111.97
2023-09-29T05:43:54.267Z,111.33
2023-09-29T05:46:22.345Z,112.07
2023-09-29T05:48:50.224Z,112.47
2023-09-29T05:51:18.160Z,111.17
2023-09-29T05:53:46.197Z,111.17
2023-09-29T05:56:17.039Z,109.90
2023-09-29T05:58:44.944Z,109.83
2023-09-29T06:01:13.404Z,108.63
2023-09-29T06:03:42.251Z,107.77
2023-09-29T06:06:10.616Z,106.10
2023-09-29T06:11:09.577Z,103.90
2023-09-29T06:13:39.267Z,103.57
2023-09-29T06:16:07.384Z,102.03
2023-09-29T06:18:35.306Z,101.10
2023-09-29T06:21:03.349Z,97.28
2023-09-29T06:23:31.426Z,94.95
2023-09-29T06:25:59.781Z,92.30
2023-09-29T06:28:27.831Z,87.57
2023-09-29T06:30:58.031Z,88.00
2023-09-29T06:33:26.866Z,89.90
2023-09-29T06:35:55.125Z,90.03
2023-09-29T06:38:25.125Z,90.15
2023-09-29T06:40:53.246Z,89.55
2023-09-29T06:43:21.142Z,86.72
2023-09-29T06:48:21.718Z,84.72
2023-09-29T06:50:50.220Z,82.40
2023-09-29T06:53:18.345Z,81.47
2023-09-29T06:55:46.246Z,79.80
2023-09-29T06:58:14.146Z,77.38
2023-09-29T07:00:42.061Z,77.10
2023-09-29T07:03:14.229Z,75.15
2023-09-29T07:05:43.843Z,73.57
2023-09-29T07:08:11.889Z,72.80
2023-09-29T07:10:39.739Z,71.72
2023-09-29T07:13:07.743Z,71.05
2023-09-29T07:15:35.678Z,67.25
2023-09-29T07:18:04.163Z,67.55
2023-09-29T07:20:32.364Z,66.32
2023-09-29T07:23:04.300Z,67.13
2023-09-29T07:25:32.303Z,66.82
2023-09-29T07:28:00.978Z,62.95
2023-09-29T07:30:28.831Z,55.70
2023-09-29T07:32:57.011Z,51.35
2023-09-29T07:35:24.986Z,44.20
2023-09-29T07:37:52.964Z,38.75
2023-09-29T07:40:22.386Z,37.03
2023-09-29T07:42:50.240Z,33.88
2023-09-29T07:45:18.910Z,32.63
2023-09-29T07:47:47.182Z,29.55
2023-09-29T07:50:15.337Z,27.63
2023-09-29T07:52:43.224Z,26.30
2023-09-29T07:55:11.207Z,25.58
2023-09-29T07:57:40.649Z,23.48
2023-09-29T08:00:11.447Z,22.95
2023-09-29T08:02:42.442Z,21.15
2023-09-29T08:05:13.497Z,20.70
2023-09-29T08:07:41.512Z,20.23
2023-09-29T08:10:11.902Z,19.45
2023-09-29T08:12:41.351Z,19.58
2023-09-29T08:15:12.538Z,19.48
2023-09-29T08:17:40.860Z,17.55
2023-09-29T08:20:09.691Z,17.67
2023-09-29T08:22:41.308Z,17.30
2023-09-29T08:25:12.063Z,16.65
2023-09-29T08:27:41.597Z,16.90
2023-09-29T08:30:09.888Z,16.85
2023-09-29T08:32:38.422Z,17.33
2023-09-29T08:35:07.277Z,15.40
2023-09-29T08:37:35.172Z,15.68
2023-09-29T08:40:03.838Z,15.18
2023-09-29T08:42:36.243Z,14.07
2023-09-29T08:45:10.157Z,14.23
2023-09-29T08:47:38.806Z,13.15
2023-09-29T08:50:07.946Z,14.82
2023-09-29T08:52:36.811Z,13.27
2023-09-29T08:55:05.343Z,13.60
2023-09-29T08:57:33.243Z,13.25
2023-09-29T09:00:04.664Z,15.07
2023-09-29T09:02:34.025Z,12.88
2023-09-29T09:05:01.927Z,13.05
2023-09-29T09:07:29.783Z,12.40
2023-09-29T09:09:58.652Z,13.10
2023-09-29T09:12:33.233Z,13.20
2023-09-29T09:15:01.436Z,12.55
2023-09-29T09:17:29.589Z,12.73
2023-09-29T09:19:59.009Z,11.77
2023-09-29T09:22:43.072Z,12.68
2023-09-29T09:25:14.203Z,12.02
2023-09-29T09:27:42.744Z,10.45
2023-09-29T09:30:21.749Z,10.98
2023-09-29T09:32:49.685Z,11.63
2023-09-29T09:35:26.888Z,10.75
2023-09-29T09:37:54.831Z,10.68
2023-09-29T09:40:25.166Z,9.88
2023-09-29T09:42:54.745Z,9.32
2023-09-29T09:45:27.120Z,9.95
2023-09-29T09:47:58.691Z,10.40
2023-09-29T09:50:30.366Z,9.25
2023-09-29T09:52:59.568Z,11.02
2023-09-29T09:55:30.234Z,9.10
2023-09-29T09:57:59.036Z,9.45
2023-09-29T10:00:27.757Z,10.30
2023-09-29T10:02:58.427Z,10.02
2023-09-29T10:05:32.187Z,9.57
2023-09-29T10:08:06.866Z,9.40
2023-09-29T10:10:35.355Z,10.65
2023-09-29T10:13:04.279Z,9.90
2023-09-29T10:15:33.823Z,9.80
2023-09-29T10:18:02.060Z,10.25
2023-09-29T10:20:31.243Z,10.65
2023-09-29T10:23:08.246Z,9.77
2023-09-29T10:25:37.979Z,10.35
2023-09-29T10:28:07.866Z,9.18
2023-09-29T10:30:36.299Z,9.60
2023-09-29T10:33:06.588Z,9.85
2023-09-29T10:35:35.138Z,9.45
2023-09-29T10:38:13.442Z,9.57
2023-09-29T10:40:43.152Z,9.70
2023-09-29T10:43:13.777Z,9.07
2023-09-29T10:45:42.140Z,8.68
2023-09-29T10:48:10.892Z,8.80
2023-09-29T10:50:42.620Z,8.95
2023-09-29T10:53:10.732Z,8.43
2023-09-29T10:55:45.230Z,9.25
2023-09-29T10:58:13.775Z,8.52
2023-09-29T11:00:43.230Z,7.82
2023-09-29T11:03:13.319Z,7.63
2023-09-29T11:05:49.532Z,7.20
2023-09-29T11:08:21.294Z,7.47
2023-09-29T11:11:00.782Z,7.35
2023-09-29T11:13:29.014Z,6.85
2023-09-29T11:15:57.600Z,7.22
2023-09-29T11:18:29.479Z,7.50
2023-09-29T11:20:58.234Z,8.00
2023-09-29T11:23:26.561Z,7.43
2023-09-29T11:25:57.972Z,7.20
2023-09-29T11:28:28.162Z,6.82
2023-09-29T11:30:56.647Z,7.05
2023-09-29T11:33:26.514Z,7.60
2023-09-29T11:36:06.387Z,7.68
2023-09-29T11:38:35.017Z,6.57
2023-09-29T11:41:03.040Z,6.93
2023-09-29T11:43:32.268Z,7.55
2023-09-29T11:46:00.314Z,7.35
2023-09-29T11:48:28.426Z,7.60
2023-09-29T11:50:56.500Z,7.05
2023-09-29T11:53:24.543Z,7.82
2023-09-29T11:55:53.081Z,6.95
2023-09-29T11:58:20.898Z,7.65
2023-09-29T12:00:50.255Z,8.07
2023-09-29T12:03:22.558Z,6.70
2023-09-29T12:05:51.873Z,7.00
2023-09-29T12:08:20.944Z,6.72
2023-09-29T12:10:48.918Z,7.90
2023-09-29T12:13:17.649Z,7.80
2023-09-29T12:15:45.614Z,6.45
2023-09-29T12:18:15.284Z,7.55
2023-09-29T12:20:43.475Z,7.35
2023-09-29T12:23:11.980Z,7.40
2023-09-29T12:25:40.526Z,6.32
2023-09-29T12:28:08.471Z,7.18
2023-09-29T12:30:36.310Z,7.50
2023-09-29T12:33:05.321Z,7.32
2023-09-29T12:35:34.800Z,7.10
2023-09-29T12:38:02.766Z,7.30
2023-09-29T12:40:30.602Z,7.53
2023-09-29T12:43:01.056Z,8.30
2023-09-29T12:45:29.103Z,6.75
2023-09-29T12:47:57.738Z,6.93
2023-09-29T12:50:26.985Z,6.75
2023-09-29T12:52:56.243Z,7.45
2023-09-29T12:55:24.287Z,7.20
2023-09-29T12:57:54.156Z,7.00
2023-09-29T13:00:24.459Z,6.80
2023-09-29T13:02:55.267Z,7.57
2023-09-29T13:05:24.085Z,7.40
2023-09-29T13:07:53.570Z,7.50
2023-09-29T13:10:23.417Z,9.18
2023-09-29T13:12:56.049Z,6.80
2023-09-29T13:15:24.335Z,6.47
2023-09-29T13:17:52.763Z,6.93
2023-09-29T13:20:20.805Z,7.22
2023-09-29T13:22:50.676Z,7.40
2023-09-29T13:25:18.652Z,7.75
2023-09-29T13:27:48.421Z,7.35
2023-09-29T13:30:18.076Z,8.13
2023-09-29T13:32:46.241Z,7.40
2023-09-29T13:35:14.380Z,8.18
2023-09-29T13:37:42.534Z,7.10
2023-09-29T13:40:10.798Z,7.03
2023-09-29T13:42:38.703Z,7.45
2023-09-29T13:45:10.909Z,7.78
2023-09-29T13:47:40.902Z,7.50
2023-09-29T13:50:12.617Z,7.40
2023-09-29T13:52:41.664Z,7.43
2023-09-29T13:55:09.911Z,7.47
2023-09-29T13:57:37.770Z,7.30
2023-09-29T14:00:06.072Z,7.20
2023-09-29T14:02:35.459Z,7.30
2023-09-29T14:05:06.615Z,6.65
2023-09-29T14:07:34.702Z,6.82
2023-09-29T14:10:02.666Z,6.78
2023-09-29T14:12:31.129Z,7.25
2023-09-29T14:14:59.395Z,6.90
2023-09-29T14:17:27.350Z,7.53
2023-09-29T14:19:57.091Z,7.78
2023-09-29T14:22:24.934Z,9.00
2023-09-29T14:24:52.807Z,6.95
2023-09-29T14:27:20.837Z,7.63
2023-09-29T14:29:48.706Z,7.45
2023-09-29T14:32:17.115Z,6.65
2023-09-29T14:34:45.207Z,7.07
2023-09-29T14:37:14.742Z,8.25
2023-09-29T14:39:42.713Z,7.47
2023-09-29T14:42:10.775Z,7.53
2023-09-29T14:44:38.690Z,6.82
2023-09-29T14:47:06.862Z,8.00
2023-09-29T14:49:34.788Z,7.40
2023-09-29T14:52:02.738Z,7.75
2023-09-29T14:54:31.993Z,8.07
2023-09-29T14:57:00.421Z,7.10
2023-09-29T14:59:28.364Z,6.80
2023-09-29T15:01:56.275Z,7.47
2023-09-29T15:04:24.419Z,6.93
2023-09-29T15:06:52.561Z,8.05
2023-09-29T15:09:20.549Z,6.85
2023-09-29T15:11:49.950Z,7.32
2023-09-29T15:14:19.149Z,8.30
2023-09-29T15:16:48.077Z,8.82
2023-09-29T15:19:16.486Z,7.93
2023-09-29T15:21:44.390Z,8.60
2023-09-29T15:24:12.450Z,7.90
2023-09-29T15:26:40.414Z,54.53
2023-09-29T15:29:09.743Z,9.63
2023-09-29T15:31:38.099Z,8.27
2023-09-29T15:34:06.613Z,8.18
2023-09-29T15:36:34.596Z,8.40
2023-09-29T15:39:04.489Z,8.40
2023-09-29T15:41:32.673Z,9.52
2023-09-29T15:44:00.565Z,7.22
2023-09-29T15:46:30.102Z,8.32
2023-09-29T15:48:58.216Z,8.10
2023-09-29T15:51:27.290Z,7.68
2023-09-29T15:53:55.343Z,7.80
2023-09-29T15:56:24.900Z,8.35
2023-09-29T15:58:53.151Z,7.65
2023-09-29T16:01:21.520Z,8.18
2023-09-29T16:03:51.386Z,7.90
2023-09-29T16:06:21.374Z,8.60
2023-09-29T16:08:49.530Z,8.95
2023-09-29T16:11:18.238Z,8.75
2023-09-29T16:13:46.879Z,8.18
2023-09-29T16:16:15.010Z,8.75
2023-09-29T16:18:43.397Z,9.23
2023-09-29T16:21:17.565Z,8.60
2023-09-29T16:23:45.522Z,7.47
2023-09-29T16:26:13.940Z,7.97
2023-09-29T16:28:42.235Z,8.43
2023-09-29T16:31:13.680Z,8.38
2023-09-29T16:33:42.014Z,9.10
2023-09-29T16:36:09.994Z,9.25
2023-09-29T16:38:40.240Z,9.32
2023-09-29T16:41:08.177Z,10.32
2023-09-29T16:43:36.294Z,9.02
2023-09-29T16:46:05.928Z,9.60
2023-09-29T16:48:33.907Z,9.10
2023-09-29T16:51:04.855Z,8.35
2023-09-29T16:53:34.450Z,8.23
2023-09-29T16:56:03.934Z,8.18
2023-09-29T16:58:31.967Z,9.48
2023-09-29T17:00:59.906Z,9.07
2023-09-29T17:03:28.040Z,9.77
2023-09-29T17:05:56.083Z,10.57
2023-09-29T17:08:23.998Z,9.68
2023-09-29T17:10:51.992Z,10.20
2023-09-29T17:13:21.288Z,11.50
2023-09-29T17:15:49.221Z,11.38
2023-09-29T17:18:17.626Z,13.63
2023-09-29T17:20:45.823Z,12.63
2023-09-29T17:23:13.844Z,13.73
2023-09-29T17:25:42.111Z,13.23
2023-09-29T17:28:10.057Z,13.52
2023-09-29T17:30:39.440Z,14.02
2023-09-29T17:33:07.637Z,13.40
2023-09-29T17:35:35.552Z,13.95
2023-09-29T17:38:03.546Z,13.98
2023-09-29T17:40:31.542Z,15.18
2023-09-29T17:42:59.693Z,15.00
2023-09-29T17:45:29.532Z,15.23
2023-09-29T17:47:58.828Z,14.48
2023-09-29T17:50:27.356Z,14.38
2023-09-29T17:52:55.234Z,14.60
2023-09-29T17:55:23.136Z,15.43
2023-09-29T17:57:51.130Z,13.88
2023-09-29T18:00:19.033Z,13.77
2023-09-29T18:02:46.914Z,14.02
2023-09-29T18:05:16.748Z,13.15
2023-09-29T18:07:44.849Z,14.23
2023-09-29T18:10:12.705Z,14.30
2023-09-29T18:12:40.619Z,13.07
2023-09-29T18:15:10.632Z,13.23
2023-09-29T18:17:38.640Z,14.05
2023-09-29T18:20:07.348Z,13.55
2023-09-29T18:22:36.643Z,12.90
2023-09-29T18:25:04.565Z,12.95
2023-09-29T18:27:32.428Z,13.23
2023-09-29T18:30:00.412Z,13.85
2023-09-29T18:32:28.510Z,14.48
2023-09-29T18:34:56.412Z,16.27
2023-09-29T18:37:25.938Z,17.48
2023-09-29T18:39:55.430Z,17.48
2023-09-29T18:42:23.295Z,18.45
2023-09-29T18:44:51.385Z,16.70
2023-09-29T18:47:19.554Z,14.32
2023-09-29T18:49:47.478Z,13.80
2023-09-29T18:52:15.471Z,15.88
2023-09-29T18:54:43.344Z,16.48
2023-09-29T18:57:12.644Z,15.80
2023-09-29T18:59:43.144Z,15.90
2023-09-29T19:02:11.150Z,17.27
2023-09-29T19:04:39.051Z,14.20
2023-09-29T19:07:06.983Z,14.70
2023-09-29T19:09:35.051Z,16.27
2023-09-29T19:12:03.420Z,18.38
2023-09-29T19:14:32.936Z,20.10
2023-09-29T19:17:01.022Z,19.25
2023-09-29T19:19:28.905Z,16.83
2023-09-29T19:21:56.980Z,15.60
2023-09-29T19:24:24.929Z,16.73
2023-09-29T19:26:53.228Z,16.45
2023-09-29T19:29:21.291Z,17.55
2023-09-29T19:31:50.688Z,17.27
2023-09-29T19:34:18.962Z,17.08
2023-09-29T19:36:47.112Z,17.70
2023-09-29T19:39:16.095Z,18.90
2023-09-29T19:41:44.194Z,18.92
2023-09-29T19:44:13.254Z,18.17
2023-09-29T19:46:41.231Z,17.65
2023-09-29T19:49:10.996Z,16.83
2023-09-29T19:51:39.050Z,18.00
2023-09-29T19:54:07.172Z,17.33
2023-09-29T19:56:35.384Z,17.27
2023-09-29T19:59:04.226Z,18.52
2023-09-29T20:01:32.558Z,17.10
2023-09-29T20:04:01.594Z,17.80
2023-09-29T20:06:31.368Z,18.58
2023-09-29T20:09:01.670Z,18.80
2023-09-29T20:11:29.762Z,17.90
2023-09-29T20:13:58.304Z,19.42
2023-09-29T20:16:26.388Z,19.45
2023-09-29T20:18:54.559Z,20.60
2023-09-29T20:21:22.568Z,20.73
2023-09-29T20:23:51.858Z,21.95
2023-09-29T20:26:19.856Z,23.27
2023-09-29T20:28:47.754Z,26.40
2023-09-29T20:31:15.639Z,26.55
2023-09-29T20:33:43.731Z,29.17
2023-09-29T20:36:11.793Z,28.30
2023-09-29T20:38:40.161Z,29.98
2023-09-29T20:41:11.111Z,36.70
2023-09-29T20:43:39.035Z,34.08
2023-09-29T20:46:07.962Z,32.85
2023-09-29T20:48:36.073Z,35.17
2023-09-29T20:51:04.149Z,36.15
2023-09-29T20:53:31.983Z,38.17
2023-09-29T20:55:59.898Z,39.50
2023-09-29T20:58:29.281Z,40.63
2023-09-29T21:00:58.498Z,42.20
2023-09-29T21:03:28.414Z,42.70
2023-09-29T21:05:56.724Z,43.55
2023-09-29T21:08:24.624Z,45.08
2023-09-29T21:10:55.796Z,45.25
2023-09-29T21:13:23.821Z,45.60
2023-09-29T21:15:54.479Z,46.88
2023-09-29T21:18:22.606Z,45.22
2023-09-29T21:20:52.904Z,47.13
2023-09-29T21:23:20.805Z,46.60
2023-09-29T21:25:50.055Z,46.15
2023-09-29T21:28:18.404Z,47.78
2023-09-29T21:30:46.877Z,47.67
2023-09-29T21:33:16.194Z,48.38
2023-09-29T21:35:44.193Z,48.80
2023-09-29T21:38:12.199Z,48.13
2023-09-29T21:40:40.115Z,47.67
2023-09-29T21:43:08.430Z,48.38
2023-09-29T21:45:36.340Z,49.25
2023-09-29T21:48:04.610Z,49.33
2023-09-29T21:50:34.026Z,47.40
2023-09-29T21:53:01.987Z,45.58
2023-09-29T21:55:29.969Z,43.58
2023-09-29T21:57:57.923Z,42.90
2023-09-29T22:00:27.053Z,43.42
2023-09-29T22:02:56.231Z,41.67
2023-09-29T22:05:25.649Z,41.47
2023-09-29T22:07:55.020Z,41.47
2023-09-29T22:10:22.951Z,40.28
2023-09-29T22:12:50.826Z,40.20
2023-09-29T22:15:19.756Z,42.00
2023-09-29T22:17:47.960Z,41.95
2023-09-29T22:20:18.355Z,43.70
2023-09-29T22:22:46.236Z,43.33
2023-09-29T22:25:15.559Z,46.05
2023-09-29T22:27:43.628Z,46.13
2023-09-29T22:30:12.564Z,45.97
2023-09-29T22:32:40.630Z,46.95
2023-09-29T22:35:09.884Z,49.25
2023-09-29T22:37:38.728Z,51.47
2023-09-29T22:40:08.447Z,52.78
2023-09-29T22:42:38.053Z,51.80
2023-09-29T22:45:07.771Z,50.75
2023-09-29T22:47:35.764Z,51.40
2023-09-29T22:50:05.072Z,51.35
2023-09-29T22:52:32.945Z,56.70
2023-09-29T22:55:01.299Z,54.70
2023-09-29T22:57:29.181Z,57.95
2023-09-29T23:00:01.070Z,61.25
2023-09-29T23:02:29.528Z,60.00
2023-09-29T23:04:57.732Z,60.47
2023-09-29T23:07:25.770Z,62.28
2023-09-29T23:09:53.770Z,62.40
2023-09-29T23:12:21.738Z,63.13
2023-09-29T23:14:50.895Z,64.20
2023-09-29T23:17:20.535Z,62.05
2023-09-29T23:19:48.908Z,62.35
2023-09-29T23:22:17.371Z,62.72
2023-09-29T23:24:45.329Z,60.05
2023-09-29T23:27:13.153Z,58.85
2023-09-29T23:29:41.622Z,61.08
2023-09-29T23:32:10.116Z,60.97
2023-09-29T23:34:39.837Z,59.95
2023-09-29T23:37:07.667Z,60.22
2023-09-29T23:39:35.666Z,59.78
2023-09-29T23:42:03.707Z,60.78
2023-09-29T23:44:33.246Z,60.03
2023-09-29T23:47:02.673Z,60.10
2023-09-29T23:49:30.582Z,58.40
2023-09-29T23:52:00.168Z,56.65
2023-09-29T23:54:28.672Z,56.85
2023-09-29T23:56:56.618Z,55.53
2023-09-29T23:59:24.594Z,50.40
